WZZ985 EPWA-LEMG
Flight info
| Callsign | WZZ985 |
|---|---|
| Flight time | 4h 3m |
| Altitude | 32000 |
| Route | EVINA DCT NAVUR DCT BAVOK DCT DETSA DCT GEKBA DCT VAMTU DCT KOLON DCT GANGU DCT PADKO DCT DIVKO DCT NILDU DCT NENDA DCT BCN DCT RODRA DCT PEXOT DCT EBROX DCT LOTOS DCT TORDU DCT DIKUT DCT SOPET DCT VLC DCT SERRA DCT ASTRO DCT POBOS DCT XEBAR DCT YES DCT MAMIS DCT BAZAS DCT VIBAS |
| Aircraft | A21N/M-SDE1E2E3FGIJ1J4RWXY/LB1 |
Departure
| Time | 2026-05-06 11:47 |
|---|---|
| Airport | Warsaw Chopin Airport (EPWA) |
Arrival
| Time | 2026-05-06 15:50 |
|---|---|
| Airport | Málaga-Costa del Sol Airport (LEMG) |
| Time | Latitude | Longitude | Altitude | Speed | Heading |
|---|---|---|---|---|---|
| 2026-05-06 10:49 | 52.16941 | 20.96894 | 344 ft | 0 kts | 276° |
| 2026-05-06 11:39 | 52.16942 | 20.96873 | 353 ft | 4 kts | 276° |
| 2026-05-06 11:39 | 52.16929 | 20.96820 | 350 ft | 7 kts | 207° |
| 2026-05-06 11:40 | 52.16870 | 20.96851 | 348 ft | 11 kts | 152° |
| 2026-05-06 11:40 | 52.16792 | 20.96919 | 346 ft | 14 kts | 152° |
| 2026-05-06 11:40 | 52.16704 | 20.96995 | 345 ft | 15 kts | 152° |
| 2026-05-06 11:40 | 52.16610 | 20.97078 | 347 ft | 16 kts | 152° |
| 2026-05-06 11:41 | 52.16511 | 20.97164 | 347 ft | 17 kts | 152° |
| 2026-05-06 11:41 | 52.16407 | 20.97255 | 342 ft | 17 kts | 152° |
| 2026-05-06 11:41 | 52.16297 | 20.97352 | 354 ft | 18 kts | 152° |
| 2026-05-06 11:41 | 52.16182 | 20.97452 | 348 ft | 19 kts | 152° |
| 2026-05-06 11:42 | 52.16062 | 20.97556 | 344 ft | 20 kts | 152° |
| 2026-05-06 11:42 | 52.15938 | 20.97665 | 350 ft | 21 kts | 152° |
| 2026-05-06 11:42 | 52.15810 | 20.97777 | 352 ft | 20 kts | 152° |
| 2026-05-06 11:42 | 52.15692 | 20.97880 | 351 ft | 17 kts | 152° |
| 2026-05-06 11:43 | 52.15631 | 20.97958 | 351 ft | 11 kts | 106° |
| 2026-05-06 11:43 | 52.15672 | 20.98058 | 353 ft | 12 kts | 25° |
| 2026-05-06 11:43 | 52.15744 | 20.98111 | 344 ft | 11 kts | 24° |
| 2026-05-06 11:44 | 52.15898 | 20.98224 | 349 ft | 13 kts | 24° |
| 2026-05-06 11:44 | 52.15970 | 20.98278 | 352 ft | 10 kts | 25° |
| 2026-05-06 11:44 | 52.16039 | 20.98329 | 348 ft | 11 kts | 24° |
| 2026-05-06 11:44 | 52.16104 | 20.98374 | 345 ft | 7 kts | 11° |
| 2026-05-06 11:45 | 52.16125 | 20.98317 | 346 ft | 6 kts | 292° |
| 2026-05-06 11:45 | 52.16128 | 20.98306 | 348 ft | 0 kts | 295° |
| 2026-05-06 11:46 | 52.16148 | 20.98233 | 351 ft | 32 kts | 294° |
| 2026-05-06 11:46 | 52.16349 | 20.97518 | 352 ft | 106 kts | 294° |
| 2026-05-06 11:46 | 52.16741 | 20.96111 | 352 ft | 162 kts | 293° |
| 2026-05-06 11:46 | 52.17266 | 20.94444 | 814 ft | 166 kts | 294° |
| 2026-05-06 11:47 | 52.17759 | 20.92767 | 1429 ft | 163 kts | 285° |
| 2026-05-06 11:47 | 52.18172 | 20.91039 | 2046 ft | 163 kts | 284° |
| 2026-05-06 11:47 | 52.18336 | 20.89279 | 2579 ft | 156 kts | 257° |
| 2026-05-06 11:47 | 52.18067 | 20.87540 | 3118 ft | 161 kts | 251° |
| 2026-05-06 11:48 | 52.17784 | 20.85713 | 3583 ft | 175 kts | 254° |
| 2026-05-06 11:48 | 52.17495 | 20.83684 | 3898 ft | 195 kts | 255° |
| 2026-05-06 11:48 | 52.16975 | 20.81509 | 4136 ft | 220 kts | 232° |
| 2026-05-06 11:48 | 52.15799 | 20.79710 | 4435 ft | 244 kts | 218° |
| 2026-05-06 11:49 | 52.14417 | 20.78020 | 5041 ft | 252 kts | 218° |
| 2026-05-06 11:49 | 52.13010 | 20.76287 | 5848 ft | 255 kts | 218° |
| 2026-05-06 11:49 | 52.11598 | 20.74523 | 6623 ft | 258 kts | 218° |
| 2026-05-06 11:49 | 52.10171 | 20.72724 | 7348 ft | 261 kts | 219° |
| 2026-05-06 11:50 | 52.08737 | 20.70907 | 8103 ft | 262 kts | 219° |
| 2026-05-06 11:50 | 52.07310 | 20.69092 | 8836 ft | 265 kts | 220° |
| 2026-05-06 11:50 | 52.06324 | 20.67839 | 9339 ft | 267 kts | 220° |
| 2026-05-06 11:50 | 52.04365 | 20.65337 | 10100 ft | 279 kts | 220° |
| 2026-05-06 11:51 | 52.02787 | 20.63323 | 10363 ft | 298 kts | 220° |
| 2026-05-06 11:51 | 52.01119 | 20.61202 | 10777 ft | 309 kts | 219° |
| 2026-05-06 11:51 | 51.99964 | 20.59741 | 11185 ft | 313 kts | 219° |
| 2026-05-06 11:51 | 51.98243 | 20.57563 | 11865 ft | 316 kts | 219° |
| 2026-05-06 11:52 | 51.96504 | 20.55356 | 12542 ft | 318 kts | 219° |
| 2026-05-06 11:52 | 51.94753 | 20.53136 | 13248 ft | 321 kts | 219° |
| 2026-05-06 11:52 | 51.92987 | 20.50899 | 13891 ft | 324 kts | 219° |
| 2026-05-06 11:52 | 51.91202 | 20.48639 | 14478 ft | 328 kts | 219° |
| 2026-05-06 11:53 | 51.89397 | 20.46357 | 15091 ft | 330 kts | 219° |
| 2026-05-06 11:53 | 51.87580 | 20.44063 | 15712 ft | 332 kts | 219° |
| 2026-05-06 11:53 | 51.85749 | 20.41751 | 16328 ft | 335 kts | 219° |
| 2026-05-06 11:53 | 51.83902 | 20.39422 | 16924 ft | 338 kts | 219° |
| 2026-05-06 11:54 | 51.82040 | 20.37075 | 17539 ft | 341 kts | 219° |
| 2026-05-06 11:54 | 51.80187 | 20.34746 | 18123 ft | 343 kts | 218° |
| 2026-05-06 11:54 | 51.78292 | 20.32366 | 18634 ft | 346 kts | 218° |
| 2026-05-06 11:54 | 51.76388 | 20.29974 | 19146 ft | 349 kts | 218° |
| 2026-05-06 11:55 | 51.74465 | 20.27561 | 19696 ft | 350 kts | 218° |
| 2026-05-06 11:55 | 51.72540 | 20.25148 | 20253 ft | 351 kts | 218° |
| 2026-05-06 11:55 | 51.70605 | 20.22728 | 20773 ft | 353 kts | 218° |
| 2026-05-06 11:55 | 51.68659 | 20.20300 | 21284 ft | 355 kts | 218° |
| 2026-05-06 11:56 | 51.66704 | 20.17857 | 21784 ft | 357 kts | 218° |
| 2026-05-06 11:56 | 51.64735 | 20.15402 | 22274 ft | 359 kts | 218° |
| 2026-05-06 11:56 | 51.62751 | 20.12934 | 22753 ft | 361 kts | 218° |
| 2026-05-06 11:56 | 51.60759 | 20.10453 | 23227 ft | 364 kts | 218° |
| 2026-05-06 11:57 | 51.58749 | 20.07955 | 23639 ft | 366 kts | 218° |
| 2026-05-06 11:57 | 51.56728 | 20.05445 | 24036 ft | 368 kts | 218° |
| 2026-05-06 11:57 | 51.54699 | 20.02927 | 24429 ft | 370 kts | 218° |
| 2026-05-06 11:57 | 51.52659 | 20.00400 | 24811 ft | 371 kts | 218° |
| 2026-05-06 11:58 | 51.50604 | 19.97858 | 25185 ft | 374 kts | 218° |
| 2026-05-06 11:58 | 51.48541 | 19.95311 | 25555 ft | 375 kts | 218° |
| 2026-05-06 11:58 | 51.46466 | 19.92752 | 25919 ft | 377 kts | 218° |
| 2026-05-06 11:58 | 51.44381 | 19.90182 | 26293 ft | 379 kts | 218° |
| 2026-05-06 11:59 | 51.42287 | 19.87603 | 26657 ft | 380 kts | 218° |
| 2026-05-06 11:59 | 51.40183 | 19.85019 | 27014 ft | 382 kts | 218° |
| 2026-05-06 11:59 | 51.38070 | 19.82422 | 27362 ft | 383 kts | 218° |
| 2026-05-06 11:59 | 51.35952 | 19.79821 | 27717 ft | 385 kts | 218° |
| 2026-05-06 12:00 | 51.33819 | 19.77209 | 28048 ft | 387 kts | 218° |
| 2026-05-06 12:00 | 51.31681 | 19.74595 | 28374 ft | 388 kts | 219° |
| 2026-05-06 12:00 | 51.29529 | 19.71964 | 28692 ft | 390 kts | 219° |
| 2026-05-06 12:00 | 51.27370 | 19.69329 | 29007 ft | 391 kts | 219° |
| 2026-05-06 12:01 | 51.25203 | 19.66683 | 29315 ft | 393 kts | 219° |
| 2026-05-06 12:01 | 51.23026 | 19.64030 | 29610 ft | 395 kts | 219° |
| 2026-05-06 12:01 | 51.20839 | 19.61368 | 29892 ft | 396 kts | 219° |
| 2026-05-06 12:01 | 51.18642 | 19.58698 | 30136 ft | 398 kts | 219° |
| 2026-05-06 12:02 | 51.16438 | 19.56020 | 30376 ft | 399 kts | 219° |
| 2026-05-06 12:02 | 51.14222 | 19.53335 | 30614 ft | 401 kts | 219° |
| 2026-05-06 12:02 | 51.11999 | 19.50646 | 30822 ft | 402 kts | 219° |
| 2026-05-06 12:02 | 51.09768 | 19.47948 | 31060 ft | 404 kts | 219° |
| 2026-05-06 12:03 | 51.07529 | 19.45243 | 31332 ft | 404 kts | 219° |
| 2026-05-06 12:03 | 51.05293 | 19.42548 | 31618 ft | 403 kts | 219° |
| 2026-05-06 12:03 | 51.03058 | 19.39857 | 31896 ft | 402 kts | 219° |
| 2026-05-06 12:03 | 51.00832 | 19.37177 | 32174 ft | 402 kts | 219° |
| 2026-05-06 12:04 | 50.98605 | 19.34503 | 32441 ft | 401 kts | 219° |
| 2026-05-06 12:04 | 50.96381 | 19.31834 | 32706 ft | 400 kts | 219° |
| 2026-05-06 12:04 | 50.94161 | 19.29175 | 32960 ft | 400 kts | 219° |
| 2026-05-06 12:04 | 50.91941 | 19.26516 | 33203 ft | 399 kts | 219° |
| 2026-05-06 12:05 | 50.89729 | 19.23871 | 33400 ft | 399 kts | 219° |
| 2026-05-06 12:05 | 50.87514 | 19.21226 | 33621 ft | 399 kts | 219° |
| 2026-05-06 12:05 | 50.85326 | 19.18619 | 33795 ft | 399 kts | 219° |
| 2026-05-06 12:05 | 50.83103 | 19.15974 | 33815 ft | 401 kts | 219° |
| 2026-05-06 12:06 | 50.78647 | 19.10675 | 33798 ft | 400 kts | 219° |
| 2026-05-06 12:06 | 50.74197 | 19.05392 | 33791 ft | 400 kts | 219° |
| 2026-05-06 12:07 | 50.69734 | 19.00111 | 33794 ft | 401 kts | 218° |
| 2026-05-06 12:07 | 50.65289 | 18.94864 | 33789 ft | 399 kts | 218° |
| 2026-05-06 12:08 | 50.60846 | 18.89632 | 33807 ft | 399 kts | 218° |
| 2026-05-06 12:08 | 50.56404 | 18.84417 | 33807 ft | 398 kts | 218° |
| 2026-05-06 12:09 | 50.51959 | 18.79207 | 33803 ft | 398 kts | 218° |
| 2026-05-06 12:09 | 50.47509 | 18.74001 | 33794 ft | 399 kts | 218° |
| 2026-05-06 12:10 | 50.43049 | 18.68801 | 33801 ft | 399 kts | 218° |
| 2026-05-06 12:10 | 50.38591 | 18.63612 | 33795 ft | 399 kts | 218° |
| 2026-05-06 12:11 | 50.34126 | 18.58430 | 33798 ft | 399 kts | 218° |
| 2026-05-06 12:11 | 50.29664 | 18.53263 | 33803 ft | 399 kts | 218° |
| 2026-05-06 12:12 | 50.25206 | 18.48114 | 33808 ft | 398 kts | 218° |
| 2026-05-06 12:12 | 50.20745 | 18.42972 | 33805 ft | 398 kts | 218° |
| 2026-05-06 12:13 | 50.16286 | 18.37842 | 33805 ft | 398 kts | 218° |
| 2026-05-06 12:13 | 50.11821 | 18.32724 | 33807 ft | 398 kts | 218° |
| 2026-05-06 12:14 | 50.07357 | 18.27615 | 33810 ft | 398 kts | 218° |
| 2026-05-06 12:14 | 50.02886 | 18.22509 | 33811 ft | 398 kts | 218° |
| 2026-05-06 12:15 | 49.98848 | 18.16689 | 33815 ft | 397 kts | 232° |
| 2026-05-06 12:15 | 49.95533 | 18.09830 | 33818 ft | 397 kts | 233° |
| 2026-05-06 12:16 | 49.92252 | 18.03009 | 33818 ft | 397 kts | 233° |
| 2026-05-06 12:16 | 49.88897 | 17.96107 | 33817 ft | 398 kts | 233° |
| 2026-05-06 12:17 | 49.85572 | 17.89302 | 33818 ft | 399 kts | 233° |
| 2026-05-06 12:17 | 49.82226 | 17.82464 | 33816 ft | 398 kts | 233° |
| 2026-05-06 12:18 | 49.78860 | 17.75604 | 33820 ft | 398 kts | 233° |
| 2026-05-06 12:18 | 49.75533 | 17.68843 | 33824 ft | 398 kts | 233° |
| 2026-05-06 12:19 | 49.72179 | 17.62042 | 33821 ft | 398 kts | 233° |
| 2026-05-06 12:19 | 49.68822 | 17.55250 | 33822 ft | 398 kts | 233° |
| 2026-05-06 12:20 | 49.65456 | 17.48466 | 33822 ft | 398 kts | 232° |
| 2026-05-06 12:20 | 49.62086 | 17.41693 | 33823 ft | 398 kts | 232° |
| 2026-05-06 12:21 | 49.58721 | 17.34929 | 33819 ft | 398 kts | 232° |
| 2026-05-06 12:21 | 49.55345 | 17.28178 | 33831 ft | 397 kts | 232° |
| 2026-05-06 12:22 | 49.51983 | 17.21463 | 33818 ft | 396 kts | 232° |
| 2026-05-06 12:22 | 49.48619 | 17.14765 | 33814 ft | 396 kts | 232° |
| 2026-05-06 12:23 | 49.45248 | 17.08078 | 33811 ft | 396 kts | 232° |
| 2026-05-06 12:23 | 49.41875 | 17.01400 | 33807 ft | 395 kts | 232° |
| 2026-05-06 12:24 | 49.38502 | 16.94735 | 33798 ft | 395 kts | 232° |
| 2026-05-06 12:24 | 49.35135 | 16.88092 | 33802 ft | 394 kts | 232° |
| 2026-05-06 12:25 | 49.31766 | 16.81470 | 33801 ft | 394 kts | 232° |
| 2026-05-06 12:25 | 49.28392 | 16.74844 | 33798 ft | 394 kts | 232° |
| 2026-05-06 12:26 | 49.25016 | 16.68239 | 33796 ft | 394 kts | 232° |
| 2026-05-06 12:26 | 49.21655 | 16.61678 | 33816 ft | 394 kts | 232° |
| 2026-05-06 12:27 | 49.18285 | 16.55114 | 33819 ft | 392 kts | 232° |
| 2026-05-06 12:27 | 49.14914 | 16.48568 | 33813 ft | 392 kts | 232° |
| 2026-05-06 12:28 | 49.11538 | 16.42031 | 33812 ft | 392 kts | 232° |
| 2026-05-06 12:28 | 49.08157 | 16.35505 | 33815 ft | 391 kts | 232° |
| 2026-05-06 12:29 | 49.04779 | 16.28997 | 33813 ft | 391 kts | 232° |
| 2026-05-06 12:29 | 49.01404 | 16.22509 | 33806 ft | 390 kts | 232° |
| 2026-05-06 12:30 | 48.98031 | 16.16034 | 33809 ft | 390 kts | 232° |
| 2026-05-06 12:30 | 48.94656 | 16.09577 | 33810 ft | 390 kts | 232° |
| 2026-05-06 12:31 | 48.91277 | 16.03130 | 33803 ft | 390 kts | 232° |
| 2026-05-06 12:31 | 48.87895 | 15.96688 | 33801 ft | 390 kts | 232° |
| 2026-05-06 12:32 | 48.84517 | 15.90268 | 33788 ft | 388 kts | 232° |
| 2026-05-06 12:32 | 48.81146 | 15.83878 | 33785 ft | 388 kts | 232° |
| 2026-05-06 12:33 | 48.77773 | 15.77492 | 33779 ft | 388 kts | 232° |
| 2026-05-06 12:33 | 48.74393 | 15.71115 | 33778 ft | 388 kts | 232° |
| 2026-05-06 12:34 | 48.71035 | 15.64794 | 33777 ft | 387 kts | 232° |
| 2026-05-06 12:34 | 48.67654 | 15.58451 | 33767 ft | 386 kts | 232° |
| 2026-05-06 12:35 | 48.64298 | 15.52157 | 33768 ft | 384 kts | 232° |
| 2026-05-06 12:35 | 48.60936 | 15.45880 | 33767 ft | 384 kts | 232° |
| 2026-05-06 12:36 | 48.57574 | 15.39610 | 33772 ft | 384 kts | 232° |
| 2026-05-06 12:36 | 48.54210 | 15.33352 | 33772 ft | 384 kts | 232° |
| 2026-05-06 12:37 | 48.50845 | 15.27110 | 33787 ft | 382 kts | 232° |
| 2026-05-06 12:37 | 48.47515 | 15.20942 | 33770 ft | 378 kts | 232° |
| 2026-05-06 12:38 | 48.44754 | 15.15846 | 33775 ft | 378 kts | 232° |
| 2026-05-06 12:38 | 48.41432 | 15.09718 | 33774 ft | 378 kts | 232° |
| 2026-05-06 12:39 | 48.38109 | 15.03607 | 33772 ft | 377 kts | 231° |
| 2026-05-06 12:39 | 48.34780 | 14.97503 | 33768 ft | 378 kts | 231° |
| 2026-05-06 12:40 | 48.31457 | 14.91417 | 33770 ft | 374 kts | 231° |
| 2026-05-06 12:40 | 48.28175 | 14.85404 | 33766 ft | 372 kts | 231° |
| 2026-05-06 12:41 | 48.24887 | 14.79403 | 33767 ft | 372 kts | 231° |
| 2026-05-06 12:41 | 48.21595 | 14.73424 | 33768 ft | 372 kts | 231° |
| 2026-05-06 12:42 | 48.18296 | 14.67441 | 33797 ft | 372 kts | 231° |
| 2026-05-06 12:42 | 48.15007 | 14.61480 | 33765 ft | 371 kts | 231° |
| 2026-05-06 12:43 | 48.11720 | 14.55541 | 33763 ft | 370 kts | 231° |
| 2026-05-06 12:43 | 48.08436 | 14.49614 | 33763 ft | 370 kts | 231° |
| 2026-05-06 12:44 | 48.05145 | 14.43696 | 33764 ft | 370 kts | 231° |
| 2026-05-06 12:44 | 48.01853 | 14.37787 | 33761 ft | 370 kts | 231° |
| 2026-05-06 12:45 | 47.98554 | 14.31879 | 33760 ft | 370 kts | 231° |
| 2026-05-06 12:46 | 47.93603 | 14.23039 | 33768 ft | 370 kts | 231° |
| 2026-05-06 12:46 | 47.90305 | 14.17166 | 33760 ft | 370 kts | 231° |
| 2026-05-06 12:47 | 47.86996 | 14.11284 | 33748 ft | 370 kts | 231° |
| 2026-05-06 12:47 | 47.83693 | 14.05424 | 33803 ft | 369 kts | 230° |
| 2026-05-06 12:48 | 47.80397 | 13.99593 | 33759 ft | 368 kts | 230° |
| 2026-05-06 12:48 | 47.77111 | 13.93787 | 33742 ft | 371 kts | 230° |
| 2026-05-06 12:49 | 47.73791 | 13.87938 | 33752 ft | 370 kts | 230° |
| 2026-05-06 12:49 | 47.70475 | 13.82103 | 33794 ft | 370 kts | 230° |
| 2026-05-06 12:50 | 47.67136 | 13.76257 | 33778 ft | 371 kts | 230° |
| 2026-05-06 12:50 | 47.63801 | 13.70414 | 33771 ft | 371 kts | 230° |
| 2026-05-06 12:51 | 47.60456 | 13.64571 | 33757 ft | 372 kts | 230° |
| 2026-05-06 12:51 | 47.57102 | 13.58740 | 33759 ft | 372 kts | 230° |
| 2026-05-06 12:52 | 47.53745 | 13.52920 | 33763 ft | 372 kts | 230° |
| 2026-05-06 12:52 | 47.50382 | 13.47092 | 33791 ft | 373 kts | 230° |
| 2026-05-06 12:53 | 47.47041 | 13.41298 | 33768 ft | 368 kts | 230° |
| 2026-05-06 12:53 | 47.43715 | 13.35545 | 33791 ft | 368 kts | 229° |
| 2026-05-06 12:54 | 47.40399 | 13.29833 | 33754 ft | 365 kts | 229° |
| 2026-05-06 12:54 | 47.37089 | 13.24157 | 33837 ft | 366 kts | 229° |
| 2026-05-06 12:55 | 47.33771 | 13.18449 | 33790 ft | 366 kts | 229° |
| 2026-05-06 12:55 | 47.32111 | 13.15589 | 33908 ft | 368 kts | 229° |
| 2026-05-06 12:55 | 47.30441 | 13.12727 | 34052 ft | 369 kts | 229° |
| 2026-05-06 12:55 | 47.28765 | 13.09860 | 34210 ft | 370 kts | 229° |
| 2026-05-06 12:56 | 47.27087 | 13.06980 | 34364 ft | 371 kts | 229° |
| 2026-05-06 12:56 | 47.23705 | 13.01199 | 34511 ft | 376 kts | 229° |
| 2026-05-06 12:57 | 47.20288 | 12.95376 | 34730 ft | 380 kts | 229° |
| 2026-05-06 12:57 | 47.16811 | 12.89476 | 34815 ft | 382 kts | 229° |
| 2026-05-06 12:58 | 47.13339 | 12.83604 | 34826 ft | 378 kts | 229° |
| 2026-05-06 12:58 | 47.09895 | 12.77777 | 34806 ft | 378 kts | 229° |
| 2026-05-06 12:59 | 47.06429 | 12.71920 | 34799 ft | 383 kts | 229° |
| 2026-05-06 12:59 | 47.02919 | 12.66039 | 34819 ft | 383 kts | 229° |
| 2026-05-06 13:00 | 46.99413 | 12.60157 | 34824 ft | 383 kts | 229° |
| 2026-05-06 13:00 | 46.95917 | 12.54272 | 34836 ft | 383 kts | 228° |
| 2026-05-06 13:01 | 46.92402 | 12.48394 | 34875 ft | 383 kts | 229° |
| 2026-05-06 13:01 | 46.88885 | 12.42523 | 34889 ft | 383 kts | 228° |
| 2026-05-06 13:02 | 46.85369 | 12.36678 | 34906 ft | 382 kts | 228° |
| 2026-05-06 13:02 | 46.81851 | 12.30843 | 34942 ft | 383 kts | 228° |
| 2026-05-06 13:03 | 46.78495 | 12.24836 | 34934 ft | 380 kts | 231° |
| 2026-05-06 13:03 | 46.75309 | 12.18691 | 34835 ft | 380 kts | 232° |
| 2026-05-06 13:04 | 46.72132 | 12.12590 | 34834 ft | 381 kts | 231° |
| 2026-05-06 13:04 | 46.68926 | 12.06438 | 34838 ft | 381 kts | 231° |
| 2026-05-06 13:05 | 46.65720 | 12.00292 | 34853 ft | 381 kts | 231° |
| 2026-05-06 13:05 | 46.62514 | 11.94184 | 34852 ft | 380 kts | 231° |
| 2026-05-06 13:06 | 46.59293 | 11.88063 | 34829 ft | 382 kts | 232° |
| 2026-05-06 13:06 | 46.56065 | 11.81951 | 34866 ft | 381 kts | 231° |
| 2026-05-06 13:07 | 46.52842 | 11.75844 | 34871 ft | 382 kts | 231° |
| 2026-05-06 13:07 | 46.49597 | 11.69708 | 34868 ft | 382 kts | 231° |
| 2026-05-06 13:08 | 46.46372 | 11.63595 | 34861 ft | 382 kts | 231° |
| 2026-05-06 13:08 | 46.43135 | 11.57495 | 34861 ft | 381 kts | 231° |
| 2026-05-06 13:09 | 46.39924 | 11.51453 | 34881 ft | 381 kts | 231° |
| 2026-05-06 13:09 | 46.36687 | 11.45380 | 34866 ft | 380 kts | 231° |
| 2026-05-06 13:10 | 46.33450 | 11.39316 | 34870 ft | 381 kts | 231° |
| 2026-05-06 13:10 | 46.30198 | 11.33245 | 34878 ft | 382 kts | 231° |
| 2026-05-06 13:11 | 46.26951 | 11.27191 | 34876 ft | 381 kts | 231° |
| 2026-05-06 13:11 | 46.25327 | 11.24171 | 34983 ft | 381 kts | 231° |
| 2026-05-06 13:11 | 46.23703 | 11.21165 | 34975 ft | 378 kts | 230° |
| 2026-05-06 13:12 | 46.20474 | 11.15178 | 34936 ft | 378 kts | 230° |
| 2026-05-06 13:12 | 46.17241 | 11.09198 | 34941 ft | 378 kts | 230° |
| 2026-05-06 13:13 | 46.14010 | 11.03226 | 34938 ft | 378 kts | 230° |
| 2026-05-06 13:13 | 46.10769 | 10.97264 | 34928 ft | 378 kts | 230° |
| 2026-05-06 13:14 | 46.07528 | 10.91302 | 34909 ft | 378 kts | 230° |
| 2026-05-06 13:14 | 46.04285 | 10.85351 | 34896 ft | 378 kts | 230° |
| 2026-05-06 13:15 | 46.01039 | 10.79411 | 34880 ft | 377 kts | 230° |
| 2026-05-06 13:15 | 45.97794 | 10.73480 | 34885 ft | 378 kts | 230° |
| 2026-05-06 13:16 | 45.94565 | 10.67599 | 34901 ft | 374 kts | 230° |
| 2026-05-06 13:16 | 45.91364 | 10.61771 | 34881 ft | 374 kts | 230° |
| 2026-05-06 13:17 | 45.88151 | 10.55938 | 34868 ft | 373 kts | 230° |
| 2026-05-06 13:17 | 45.84925 | 10.50099 | 34877 ft | 374 kts | 230° |
| 2026-05-06 13:18 | 45.81691 | 10.44256 | 34876 ft | 375 kts | 230° |
| 2026-05-06 13:18 | 45.78458 | 10.38412 | 34880 ft | 373 kts | 230° |
| 2026-05-06 13:19 | 45.75222 | 10.32588 | 34872 ft | 374 kts | 230° |
| 2026-05-06 13:19 | 45.71981 | 10.26766 | 34867 ft | 374 kts | 230° |
| 2026-05-06 13:20 | 45.68744 | 10.20962 | 34878 ft | 373 kts | 230° |
| 2026-05-06 13:20 | 45.65516 | 10.15190 | 34859 ft | 371 kts | 230° |
| 2026-05-06 13:21 | 45.62290 | 10.09426 | 34857 ft | 371 kts | 230° |
| 2026-05-06 13:21 | 45.59057 | 10.03675 | 34855 ft | 371 kts | 230° |
| 2026-05-06 13:22 | 45.55825 | 9.97930 | 34862 ft | 371 kts | 229° |
| 2026-05-06 13:22 | 45.52579 | 9.92190 | 34845 ft | 372 kts | 229° |
| 2026-05-06 13:23 | 45.49331 | 9.86434 | 34856 ft | 373 kts | 230° |
| 2026-05-06 13:23 | 45.46080 | 9.80678 | 34860 ft | 373 kts | 229° |
| 2026-05-06 13:23 | 45.44469 | 9.77838 | 35047 ft | 374 kts | 229° |
| 2026-05-06 13:24 | 45.42809 | 9.74917 | 35190 ft | 375 kts | 229° |
| 2026-05-06 13:24 | 45.41172 | 9.72034 | 35331 ft | 376 kts | 229° |
| 2026-05-06 13:24 | 45.39527 | 9.69141 | 35437 ft | 377 kts | 229° |
| 2026-05-06 13:24 | 45.37898 | 9.66275 | 35553 ft | 377 kts | 229° |
| 2026-05-06 13:25 | 45.36246 | 9.63374 | 35642 ft | 378 kts | 230° |
| 2026-05-06 13:25 | 45.32922 | 9.57552 | 35837 ft | 380 kts | 230° |
| 2026-05-06 13:26 | 45.29587 | 9.51716 | 36017 ft | 381 kts | 230° |
| 2026-05-06 13:26 | 45.26230 | 9.45878 | 36181 ft | 382 kts | 230° |
| 2026-05-06 13:27 | 45.22866 | 9.40025 | 36333 ft | 383 kts | 230° |
| 2026-05-06 13:27 | 45.19492 | 9.34169 | 36505 ft | 384 kts | 230° |
| 2026-05-06 13:28 | 45.16683 | 9.29291 | 36612 ft | 385 kts | 230° |
| 2026-05-06 13:28 | 45.13291 | 9.23407 | 36796 ft | 386 kts | 230° |
| 2026-05-06 13:29 | 45.09873 | 9.17508 | 36825 ft | 388 kts | 230° |
| 2026-05-06 13:29 | 45.06451 | 9.11610 | 36800 ft | 388 kts | 230° |
| 2026-05-06 13:30 | 45.03028 | 9.05708 | 36796 ft | 388 kts | 230° |
| 2026-05-06 13:30 | 44.99614 | 8.99822 | 36792 ft | 387 kts | 230° |
| 2026-05-06 13:31 | 44.96187 | 8.93961 | 36801 ft | 387 kts | 229° |
| 2026-05-06 13:31 | 44.92755 | 8.88093 | 36791 ft | 388 kts | 230° |
| 2026-05-06 13:32 | 44.89329 | 8.82225 | 36794 ft | 387 kts | 229° |
| 2026-05-06 13:32 | 44.85900 | 8.76384 | 36826 ft | 388 kts | 230° |
| 2026-05-06 13:33 | 44.82469 | 8.70545 | 36789 ft | 387 kts | 229° |
| 2026-05-06 13:33 | 44.79025 | 8.64727 | 36798 ft | 386 kts | 229° |
| 2026-05-06 13:34 | 44.75588 | 8.58900 | 36786 ft | 386 kts | 229° |
| 2026-05-06 13:34 | 44.72151 | 8.53089 | 36796 ft | 386 kts | 229° |
| 2026-05-06 13:35 | 44.68707 | 8.47281 | 36786 ft | 386 kts | 229° |
| 2026-05-06 13:35 | 44.65269 | 8.41503 | 36781 ft | 384 kts | 229° |
| 2026-05-06 13:36 | 44.61834 | 8.35738 | 36811 ft | 384 kts | 229° |
| 2026-05-06 13:36 | 44.58422 | 8.30017 | 36807 ft | 385 kts | 229° |
| 2026-05-06 13:37 | 44.54974 | 8.24244 | 36784 ft | 386 kts | 229° |
| 2026-05-06 13:37 | 44.51520 | 8.18474 | 36764 ft | 387 kts | 229° |
| 2026-05-06 13:38 | 44.48052 | 8.12722 | 36771 ft | 385 kts | 229° |
| 2026-05-06 13:38 | 44.44596 | 8.06991 | 36771 ft | 385 kts | 229° |
| 2026-05-06 13:39 | 44.41141 | 8.01249 | 36780 ft | 385 kts | 229° |
| 2026-05-06 13:39 | 44.37679 | 7.95518 | 36786 ft | 387 kts | 229° |
| 2026-05-06 13:40 | 44.34187 | 7.89742 | 36768 ft | 389 kts | 229° |
| 2026-05-06 13:40 | 44.30681 | 7.83943 | 36774 ft | 390 kts | 229° |
| 2026-05-06 13:41 | 44.27160 | 7.78221 | 36776 ft | 386 kts | 226° |
| 2026-05-06 13:41 | 44.23193 | 7.73120 | 36784 ft | 389 kts | 221° |
| 2026-05-06 13:42 | 44.19103 | 7.68136 | 36800 ft | 390 kts | 221° |
| 2026-05-06 13:42 | 44.15043 | 7.63135 | 36784 ft | 391 kts | 224° |
| 2026-05-06 13:43 | 44.11386 | 7.57530 | 36827 ft | 391 kts | 229° |
| 2026-05-06 13:43 | 44.07845 | 7.51820 | 36840 ft | 393 kts | 229° |
| 2026-05-06 13:44 | 44.04257 | 7.46086 | 36801 ft | 394 kts | 229° |
| 2026-05-06 13:44 | 44.00650 | 7.40334 | 36819 ft | 394 kts | 229° |
| 2026-05-06 13:45 | 43.97048 | 7.34597 | 36823 ft | 392 kts | 229° |
| 2026-05-06 13:45 | 43.91675 | 7.26074 | 36849 ft | 391 kts | 229° |
| 2026-05-06 13:46 | 43.88080 | 7.20387 | 36830 ft | 390 kts | 229° |
| 2026-05-06 13:46 | 43.84497 | 7.14714 | 36845 ft | 392 kts | 229° |
| 2026-05-06 13:47 | 43.80905 | 7.09044 | 36839 ft | 393 kts | 229° |
| 2026-05-06 13:47 | 43.77315 | 7.03397 | 36842 ft | 388 kts | 229° |
| 2026-05-06 13:48 | 43.73733 | 6.97756 | 36858 ft | 390 kts | 230° |
| 2026-05-06 13:48 | 43.70949 | 6.91347 | 36840 ft | 394 kts | 245° |
| 2026-05-06 13:49 | 43.68919 | 6.84333 | 36841 ft | 394 kts | 246° |
| 2026-05-06 13:49 | 43.66877 | 6.77332 | 36849 ft | 393 kts | 245° |
| 2026-05-06 13:50 | 43.64812 | 6.70341 | 36826 ft | 394 kts | 245° |
| 2026-05-06 13:50 | 43.62746 | 6.63360 | 36831 ft | 391 kts | 245° |
| 2026-05-06 13:51 | 43.60682 | 6.56412 | 36847 ft | 392 kts | 245° |
| 2026-05-06 13:51 | 43.58608 | 6.49452 | 36867 ft | 393 kts | 245° |
| 2026-05-06 13:52 | 43.56525 | 6.42495 | 36871 ft | 394 kts | 245° |
| 2026-05-06 13:52 | 43.54433 | 6.35506 | 36870 ft | 394 kts | 245° |
| 2026-05-06 13:53 | 43.52343 | 6.28529 | 36875 ft | 394 kts | 245° |
| 2026-05-06 13:53 | 43.50243 | 6.21553 | 36883 ft | 394 kts | 245° |
| 2026-05-06 13:54 | 43.48135 | 6.14581 | 36879 ft | 395 kts | 245° |
| 2026-05-06 13:54 | 43.46021 | 6.07613 | 36899 ft | 394 kts | 245° |
| 2026-05-06 13:55 | 43.43902 | 6.00676 | 36879 ft | 393 kts | 245° |
| 2026-05-06 13:55 | 43.41789 | 5.93777 | 36882 ft | 393 kts | 245° |
| 2026-05-06 13:56 | 43.39668 | 5.86827 | 36888 ft | 394 kts | 245° |
| 2026-05-06 13:56 | 43.37542 | 5.79879 | 36891 ft | 393 kts | 245° |
| 2026-05-06 13:57 | 43.35430 | 5.72945 | 36905 ft | 394 kts | 245° |
| 2026-05-06 13:57 | 43.33293 | 5.66013 | 36914 ft | 395 kts | 245° |
| 2026-05-06 13:58 | 43.31145 | 5.59059 | 36923 ft | 395 kts | 245° |
| 2026-05-06 13:58 | 43.28989 | 5.52115 | 36919 ft | 394 kts | 245° |
| 2026-05-06 13:59 | 43.26846 | 5.45204 | 36931 ft | 395 kts | 245° |
| 2026-05-06 13:59 | 43.24706 | 5.38287 | 36935 ft | 394 kts | 245° |
| 2026-05-06 14:00 | 43.22557 | 5.31388 | 36963 ft | 394 kts | 245° |
| 2026-05-06 14:00 | 43.20396 | 5.24489 | 36946 ft | 394 kts | 245° |
| 2026-05-06 14:01 | 43.18229 | 5.17584 | 36939 ft | 394 kts | 245° |
| 2026-05-06 14:01 | 43.16063 | 5.10684 | 36938 ft | 394 kts | 245° |
| 2026-05-06 14:02 | 43.13890 | 5.03794 | 36942 ft | 394 kts | 245° |
| 2026-05-06 14:02 | 43.11712 | 4.96901 | 36916 ft | 394 kts | 245° |
| 2026-05-06 14:03 | 43.09525 | 4.90015 | 36932 ft | 394 kts | 245° |
| 2026-05-06 14:03 | 43.07355 | 4.83177 | 36931 ft | 395 kts | 245° |
| 2026-05-06 14:04 | 43.04636 | 4.76696 | 36937 ft | 396 kts | 230° |
| 2026-05-06 14:04 | 43.00628 | 4.71561 | 36939 ft | 396 kts | 223° |
| 2026-05-06 14:05 | 42.96477 | 4.66625 | 36938 ft | 396 kts | 223° |
| 2026-05-06 14:05 | 42.92347 | 4.61659 | 36926 ft | 396 kts | 223° |
| 2026-05-06 14:06 | 42.88220 | 4.56696 | 36944 ft | 395 kts | 223° |
| 2026-05-06 14:06 | 42.84075 | 4.51710 | 36934 ft | 398 kts | 223° |
| 2026-05-06 14:07 | 42.79930 | 4.46731 | 36935 ft | 398 kts | 223° |
| 2026-05-06 14:07 | 42.75776 | 4.41757 | 36939 ft | 399 kts | 223° |
| 2026-05-06 14:08 | 42.71621 | 4.36788 | 36938 ft | 398 kts | 223° |
| 2026-05-06 14:08 | 42.67460 | 4.31828 | 36941 ft | 398 kts | 223° |
| 2026-05-06 14:09 | 42.63299 | 4.26883 | 36941 ft | 398 kts | 223° |
| 2026-05-06 14:09 | 42.59129 | 4.21943 | 36945 ft | 398 kts | 223° |
| 2026-05-06 14:10 | 42.54956 | 4.16995 | 36955 ft | 400 kts | 223° |
| 2026-05-06 14:10 | 42.50779 | 4.12028 | 36943 ft | 397 kts | 223° |
| 2026-05-06 14:11 | 42.46610 | 4.07094 | 36946 ft | 397 kts | 223° |
| 2026-05-06 14:11 | 42.42444 | 4.02178 | 36946 ft | 397 kts | 223° |
| 2026-05-06 14:12 | 42.38270 | 3.97264 | 36944 ft | 397 kts | 223° |
| 2026-05-06 14:12 | 42.34101 | 3.92363 | 36953 ft | 397 kts | 223° |
| 2026-05-06 14:13 | 42.29950 | 3.87490 | 36942 ft | 395 kts | 223° |
| 2026-05-06 14:13 | 42.25925 | 3.82525 | 36945 ft | 393 kts | 230° |
| 2026-05-06 14:14 | 42.22663 | 3.76597 | 36956 ft | 394 kts | 235° |
| 2026-05-06 14:14 | 42.19514 | 3.70551 | 36955 ft | 394 kts | 235° |
| 2026-05-06 14:15 | 42.16342 | 3.64522 | 36953 ft | 394 kts | 235° |
| 2026-05-06 14:15 | 42.13163 | 3.58507 | 36942 ft | 393 kts | 235° |
| 2026-05-06 14:16 | 42.10504 | 3.53489 | 36950 ft | 393 kts | 235° |
| 2026-05-06 14:16 | 42.07352 | 3.47546 | 36949 ft | 393 kts | 235° |
| 2026-05-06 14:17 | 42.04171 | 3.41565 | 36949 ft | 393 kts | 235° |
| 2026-05-06 14:17 | 42.00988 | 3.35589 | 36946 ft | 392 kts | 235° |
| 2026-05-06 14:18 | 41.97802 | 3.29623 | 36946 ft | 393 kts | 235° |
| 2026-05-06 14:18 | 41.94613 | 3.23667 | 36947 ft | 393 kts | 234° |
| 2026-05-06 14:19 | 41.91424 | 3.17714 | 36936 ft | 391 kts | 235° |
| 2026-05-06 14:19 | 41.88248 | 3.11788 | 36939 ft | 392 kts | 235° |
| 2026-05-06 14:20 | 41.85058 | 3.05862 | 36934 ft | 391 kts | 234° |
| 2026-05-06 14:20 | 41.81854 | 2.99921 | 36930 ft | 395 kts | 235° |
| 2026-05-06 14:21 | 41.78634 | 2.93960 | 36937 ft | 395 kts | 235° |
| 2026-05-06 14:21 | 41.75411 | 2.87999 | 36923 ft | 394 kts | 234° |
| 2026-05-06 14:22 | 41.72212 | 2.82098 | 36932 ft | 394 kts | 235° |
| 2026-05-06 14:22 | 41.68993 | 2.76169 | 36937 ft | 393 kts | 234° |
| 2026-05-06 14:23 | 41.65654 | 2.70357 | 36933 ft | 394 kts | 233° |
| 2026-05-06 14:23 | 41.62291 | 2.64567 | 36947 ft | 395 kts | 233° |
| 2026-05-06 14:24 | 41.58909 | 2.58764 | 36945 ft | 395 kts | 233° |
| 2026-05-06 14:24 | 41.55520 | 2.52968 | 36943 ft | 396 kts | 233° |
| 2026-05-06 14:25 | 41.52128 | 2.47176 | 36926 ft | 396 kts | 233° |
| 2026-05-06 14:25 | 41.48750 | 2.41418 | 36938 ft | 394 kts | 233° |
| 2026-05-06 14:26 | 41.45377 | 2.35676 | 36941 ft | 394 kts | 233° |
| 2026-05-06 14:26 | 41.42000 | 2.29931 | 36938 ft | 393 kts | 233° |
| 2026-05-06 14:27 | 41.38610 | 2.24177 | 36944 ft | 396 kts | 233° |
| 2026-05-06 14:27 | 41.35208 | 2.18416 | 36936 ft | 396 kts | 233° |
| 2026-05-06 14:28 | 41.31803 | 2.12659 | 36912 ft | 397 kts | 233° |
| 2026-05-06 14:28 | 41.28228 | 2.07101 | 36931 ft | 394 kts | 230° |
| 2026-05-06 14:29 | 41.24588 | 2.01720 | 36934 ft | 394 kts | 230° |
| 2026-05-06 14:29 | 41.20923 | 1.96304 | 36934 ft | 394 kts | 230° |
| 2026-05-06 14:30 | 41.17260 | 1.90891 | 36948 ft | 394 kts | 230° |
| 2026-05-06 14:30 | 41.13579 | 1.85460 | 36934 ft | 396 kts | 230° |
| 2026-05-06 14:31 | 41.09891 | 1.80036 | 36922 ft | 396 kts | 230° |
| 2026-05-06 14:31 | 41.06213 | 1.74639 | 36925 ft | 395 kts | 230° |
| 2026-05-06 14:32 | 41.02534 | 1.69249 | 36924 ft | 394 kts | 230° |
| 2026-05-06 14:32 | 40.98857 | 1.63861 | 36921 ft | 394 kts | 230° |
| 2026-05-06 14:33 | 40.95174 | 1.58480 | 36926 ft | 394 kts | 230° |
| 2026-05-06 14:33 | 40.91498 | 1.53099 | 36927 ft | 394 kts | 230° |
| 2026-05-06 14:34 | 40.87807 | 1.47719 | 36912 ft | 394 kts | 230° |
| 2026-05-06 14:34 | 40.84120 | 1.42359 | 36923 ft | 394 kts | 230° |
| 2026-05-06 14:35 | 40.80432 | 1.37016 | 36924 ft | 394 kts | 230° |
| 2026-05-06 14:35 | 40.76741 | 1.31671 | 36924 ft | 394 kts | 230° |
| 2026-05-06 14:36 | 40.73048 | 1.26333 | 36923 ft | 394 kts | 230° |
| 2026-05-06 14:36 | 40.69350 | 1.21000 | 36923 ft | 393 kts | 230° |
| 2026-05-06 14:37 | 40.65655 | 1.15671 | 36926 ft | 393 kts | 230° |
| 2026-05-06 14:37 | 40.61982 | 1.10384 | 36933 ft | 394 kts | 230° |
| 2026-05-06 14:38 | 40.58274 | 1.05056 | 36921 ft | 395 kts | 230° |
| 2026-05-06 14:38 | 40.54539 | 0.99699 | 36930 ft | 395 kts | 230° |
| 2026-05-06 14:39 | 40.50823 | 0.94388 | 36927 ft | 395 kts | 230° |
| 2026-05-06 14:39 | 40.47132 | 0.89118 | 36904 ft | 395 kts | 230° |
| 2026-05-06 14:40 | 40.43408 | 0.83813 | 36924 ft | 393 kts | 230° |
| 2026-05-06 14:40 | 40.39692 | 0.78527 | 36927 ft | 394 kts | 230° |
| 2026-05-06 14:41 | 40.35974 | 0.73246 | 36940 ft | 396 kts | 230° |
| 2026-05-06 14:41 | 40.32233 | 0.67949 | 36936 ft | 395 kts | 230° |
| 2026-05-06 14:42 | 40.28492 | 0.62661 | 36935 ft | 395 kts | 230° |
| 2026-05-06 14:42 | 40.24750 | 0.57377 | 36914 ft | 396 kts | 230° |
| 2026-05-06 14:43 | 40.21016 | 0.52116 | 36936 ft | 395 kts | 230° |
| 2026-05-06 14:43 | 40.17286 | 0.46866 | 36954 ft | 394 kts | 230° |
| 2026-05-06 14:44 | 40.13549 | 0.41622 | 36959 ft | 394 kts | 230° |
| 2026-05-06 14:45 | 40.07963 | 0.33800 | 36964 ft | 395 kts | 230° |
| 2026-05-06 14:45 | 40.04220 | 0.28565 | 36940 ft | 395 kts | 230° |
| 2026-05-06 14:46 | 40.00478 | 0.23333 | 36932 ft | 393 kts | 230° |
| 2026-05-06 14:46 | 39.96740 | 0.18112 | 36935 ft | 394 kts | 230° |
| 2026-05-06 14:47 | 39.93001 | 0.12900 | 36935 ft | 394 kts | 230° |
| 2026-05-06 14:47 | 39.89260 | 0.07697 | 36942 ft | 394 kts | 230° |
| 2026-05-06 14:48 | 39.85515 | 0.02502 | 36941 ft | 394 kts | 229° |
| 2026-05-06 14:48 | 39.81766 | -0.02695 | 36950 ft | 394 kts | 230° |
| 2026-05-06 14:49 | 39.78016 | -0.07891 | 36928 ft | 394 kts | 229° |
| 2026-05-06 14:49 | 39.74267 | -0.13067 | 36937 ft | 394 kts | 229° |
| 2026-05-06 14:50 | 39.70514 | -0.18237 | 36937 ft | 393 kts | 229° |
| 2026-05-06 14:50 | 39.66754 | -0.23400 | 36936 ft | 393 kts | 229° |
| 2026-05-06 14:51 | 39.62991 | -0.28561 | 36934 ft | 393 kts | 229° |
| 2026-05-06 14:51 | 39.59256 | -0.33682 | 36935 ft | 393 kts | 229° |
| 2026-05-06 14:52 | 39.55493 | -0.38838 | 36925 ft | 394 kts | 229° |
| 2026-05-06 14:52 | 39.51734 | -0.43974 | 36934 ft | 392 kts | 229° |
| 2026-05-06 14:53 | 39.48054 | -0.49172 | 36934 ft | 391 kts | 233° |
| 2026-05-06 14:53 | 39.44761 | -0.54763 | 36935 ft | 390 kts | 235° |
| 2026-05-06 14:54 | 39.41490 | -0.60380 | 36936 ft | 390 kts | 234° |
| 2026-05-06 14:54 | 39.38213 | -0.65972 | 36934 ft | 390 kts | 234° |
| 2026-05-06 14:55 | 39.34928 | -0.71560 | 36902 ft | 390 kts | 234° |
| 2026-05-06 14:55 | 39.31633 | -0.77156 | 36929 ft | 391 kts | 234° |
| 2026-05-06 14:56 | 39.28338 | -0.82739 | 36926 ft | 391 kts | 234° |
| 2026-05-06 14:56 | 39.25034 | -0.88325 | 36924 ft | 391 kts | 234° |
| 2026-05-06 14:57 | 39.21736 | -0.93900 | 36919 ft | 391 kts | 234° |
| 2026-05-06 14:57 | 39.18437 | -0.99463 | 36918 ft | 391 kts | 234° |
| 2026-05-06 14:58 | 39.15133 | -1.05024 | 36923 ft | 390 kts | 234° |
| 2026-05-06 14:58 | 39.11827 | -1.10577 | 36915 ft | 391 kts | 234° |
| 2026-05-06 14:59 | 39.08508 | -1.16141 | 36921 ft | 391 kts | 234° |
| 2026-05-06 14:59 | 39.05193 | -1.21690 | 36912 ft | 391 kts | 234° |
| 2026-05-06 15:00 | 39.01880 | -1.27232 | 36909 ft | 390 kts | 234° |
| 2026-05-06 15:00 | 38.98584 | -1.32731 | 36910 ft | 391 kts | 234° |
| 2026-05-06 15:01 | 38.95262 | -1.38264 | 36907 ft | 391 kts | 234° |
| 2026-05-06 15:01 | 38.91937 | -1.43791 | 36912 ft | 391 kts | 234° |
| 2026-05-06 15:02 | 38.88603 | -1.49323 | 36917 ft | 392 kts | 234° |
| 2026-05-06 15:02 | 38.85281 | -1.54833 | 36926 ft | 389 kts | 234° |
| 2026-05-06 15:03 | 38.81968 | -1.60314 | 36922 ft | 389 kts | 234° |
| 2026-05-06 15:03 | 38.78654 | -1.65788 | 36923 ft | 389 kts | 234° |
| 2026-05-06 15:04 | 38.75341 | -1.71253 | 36920 ft | 388 kts | 234° |
| 2026-05-06 15:04 | 38.72019 | -1.76719 | 36916 ft | 389 kts | 234° |
| 2026-05-06 15:05 | 38.68696 | -1.82180 | 36916 ft | 389 kts | 234° |
| 2026-05-06 15:05 | 38.65367 | -1.87632 | 36905 ft | 389 kts | 234° |
| 2026-05-06 15:06 | 38.62598 | -1.92164 | 36895 ft | 390 kts | 234° |
| 2026-05-06 15:06 | 38.59260 | -1.97618 | 36904 ft | 389 kts | 233° |
| 2026-05-06 15:07 | 38.55921 | -2.03070 | 36909 ft | 389 kts | 233° |
| 2026-05-06 15:07 | 38.52581 | -2.08513 | 36909 ft | 390 kts | 233° |
| 2026-05-06 15:08 | 38.49237 | -2.13955 | 36907 ft | 389 kts | 233° |
| 2026-05-06 15:08 | 38.45889 | -2.19393 | 36906 ft | 390 kts | 233° |
| 2026-05-06 15:09 | 38.42532 | -2.24824 | 36906 ft | 390 kts | 233° |
| 2026-05-06 15:09 | 38.39171 | -2.30257 | 36915 ft | 390 kts | 233° |
| 2026-05-06 15:10 | 38.35777 | -2.35649 | 36904 ft | 390 kts | 230° |
| 2026-05-06 15:10 | 38.32055 | -2.40701 | 36901 ft | 391 kts | 229° |
| 2026-05-06 15:11 | 38.28301 | -2.45726 | 36897 ft | 392 kts | 229° |
| 2026-05-06 15:11 | 38.24562 | -2.50749 | 36894 ft | 390 kts | 229° |
| 2026-05-06 15:12 | 38.20805 | -2.55771 | 36898 ft | 393 kts | 229° |
| 2026-05-06 15:12 | 38.17044 | -2.60798 | 36896 ft | 392 kts | 229° |
| 2026-05-06 15:13 | 38.13298 | -2.65792 | 36884 ft | 389 kts | 229° |
| 2026-05-06 15:13 | 38.09558 | -2.70789 | 36898 ft | 391 kts | 229° |
| 2026-05-06 15:14 | 38.05812 | -2.75776 | 36891 ft | 390 kts | 229° |
| 2026-05-06 15:14 | 38.02066 | -2.80749 | 36892 ft | 390 kts | 228° |
| 2026-05-06 15:15 | 37.98335 | -2.85701 | 36896 ft | 390 kts | 229° |
| 2026-05-06 15:15 | 37.94591 | -2.90663 | 36882 ft | 390 kts | 229° |
| 2026-05-06 15:16 | 37.90838 | -2.95625 | 36866 ft | 390 kts | 229° |
| 2026-05-06 15:16 | 37.87091 | -3.00570 | 36877 ft | 389 kts | 229° |
| 2026-05-06 15:17 | 37.83333 | -3.05523 | 36890 ft | 390 kts | 229° |
| 2026-05-06 15:17 | 37.79581 | -3.10456 | 36876 ft | 388 kts | 229° |
| 2026-05-06 15:18 | 37.75836 | -3.15382 | 36870 ft | 390 kts | 229° |
| 2026-05-06 15:18 | 37.72086 | -3.20302 | 36871 ft | 388 kts | 229° |
| 2026-05-06 15:19 | 37.68334 | -3.25214 | 36872 ft | 390 kts | 228° |
| 2026-05-06 15:19 | 37.64580 | -3.30120 | 36858 ft | 388 kts | 228° |
| 2026-05-06 15:19 | 37.62716 | -3.32555 | 36652 ft | 383 kts | 228° |
| 2026-05-06 15:20 | 37.60861 | -3.34977 | 35750 ft | 386 kts | 228° |
| 2026-05-06 15:20 | 37.58994 | -3.37413 | 34988 ft | 385 kts | 228° |
| 2026-05-06 15:20 | 37.57145 | -3.39825 | 34407 ft | 380 kts | 228° |
| 2026-05-06 15:20 | 37.55320 | -3.42202 | 33859 ft | 375 kts | 228° |
| 2026-05-06 15:21 | 37.53519 | -3.44546 | 33276 ft | 369 kts | 227° |
| 2026-05-06 15:21 | 37.51742 | -3.46853 | 32728 ft | 364 kts | 227° |
| 2026-05-06 15:21 | 37.49996 | -3.49121 | 32172 ft | 358 kts | 227° |
| 2026-05-06 15:21 | 37.48277 | -3.51353 | 31657 ft | 352 kts | 227° |
| 2026-05-06 15:22 | 37.46580 | -3.53552 | 31134 ft | 348 kts | 227° |
| 2026-05-06 15:22 | 37.44907 | -3.55719 | 30634 ft | 343 kts | 227° |
| 2026-05-06 15:22 | 37.43256 | -3.57858 | 30161 ft | 338 kts | 227° |
| 2026-05-06 15:22 | 37.41627 | -3.59967 | 29609 ft | 335 kts | 227° |
| 2026-05-06 15:23 | 37.39988 | -3.62034 | 29062 ft | 333 kts | 224° |
| 2026-05-06 15:23 | 37.38141 | -3.63783 | 28596 ft | 335 kts | 215° |
| 2026-05-06 15:23 | 37.36075 | -3.65168 | 28298 ft | 337 kts | 210° |
| 2026-05-06 15:23 | 37.33961 | -3.66447 | 28012 ft | 337 kts | 210° |
| 2026-05-06 15:24 | 37.31845 | -3.67727 | 27734 ft | 336 kts | 210° |
| 2026-05-06 15:24 | 37.29745 | -3.69011 | 27399 ft | 335 kts | 210° |
| 2026-05-06 15:24 | 37.27667 | -3.70291 | 26959 ft | 331 kts | 210° |
| 2026-05-06 15:24 | 37.25605 | -3.71567 | 26480 ft | 330 kts | 210° |
| 2026-05-06 15:25 | 37.23589 | -3.72816 | 26008 ft | 329 kts | 210° |
| 2026-05-06 15:25 | 37.21531 | -3.74092 | 25543 ft | 328 kts | 210° |
| 2026-05-06 15:25 | 37.19466 | -3.75373 | 25076 ft | 326 kts | 210° |
| 2026-05-06 15:25 | 37.17435 | -3.76633 | 24586 ft | 326 kts | 210° |
| 2026-05-06 15:26 | 37.15416 | -3.77925 | 24008 ft | 325 kts | 215° |
| 2026-05-06 15:26 | 37.13650 | -3.79694 | 23161 ft | 328 kts | 230° |
| 2026-05-06 15:26 | 37.12290 | -3.82023 | 22156 ft | 336 kts | 239° |
| 2026-05-06 15:26 | 37.11106 | -3.84577 | 21345 ft | 340 kts | 240° |
| 2026-05-06 15:27 | 37.09947 | -3.87108 | 20740 ft | 339 kts | 240° |
| 2026-05-06 15:27 | 37.08746 | -3.89685 | 20149 ft | 337 kts | 240° |
| 2026-05-06 15:27 | 37.07570 | -3.92174 | 19591 ft | 336 kts | 239° |
| 2026-05-06 15:27 | 37.06376 | -3.94682 | 19020 ft | 334 kts | 239° |
| 2026-05-06 15:28 | 37.05184 | -3.97175 | 18471 ft | 333 kts | 239° |
| 2026-05-06 15:28 | 37.03994 | -3.99657 | 17883 ft | 332 kts | 239° |
| 2026-05-06 15:28 | 37.02805 | -4.02135 | 17279 ft | 331 kts | 239° |
| 2026-05-06 15:28 | 37.01623 | -4.04596 | 16708 ft | 329 kts | 239° |
| 2026-05-06 15:29 | 37.00448 | -4.07047 | 16173 ft | 327 kts | 239° |
| 2026-05-06 15:29 | 36.99294 | -4.09448 | 15918 ft | 316 kts | 239° |
| 2026-05-06 15:29 | 36.98186 | -4.11751 | 15856 ft | 304 kts | 239° |
| 2026-05-06 15:29 | 36.97098 | -4.14008 | 15860 ft | 303 kts | 239° |
| 2026-05-06 15:30 | 36.96008 | -4.16266 | 15870 ft | 303 kts | 239° |
| 2026-05-06 15:30 | 36.94918 | -4.18526 | 15888 ft | 303 kts | 239° |
| 2026-05-06 15:30 | 36.93828 | -4.20782 | 15896 ft | 303 kts | 239° |
| 2026-05-06 15:30 | 36.92737 | -4.23037 | 15890 ft | 303 kts | 239° |
| 2026-05-06 15:31 | 36.91647 | -4.25290 | 15896 ft | 303 kts | 239° |
| 2026-05-06 15:31 | 36.90630 | -4.27592 | 15868 ft | 303 kts | 248° |
| 2026-05-06 15:31 | 36.90185 | -4.30156 | 15876 ft | 305 kts | 267° |
| 2026-05-06 15:32 | 36.91116 | -4.35325 | 15886 ft | 308 kts | 287° |
| 2026-05-06 15:32 | 36.91811 | -4.37856 | 15819 ft | 305 kts | 287° |
| 2026-05-06 15:32 | 36.92489 | -4.40376 | 15162 ft | 309 kts | 286° |
| 2026-05-06 15:32 | 36.93168 | -4.42962 | 14396 ft | 317 kts | 285° |
| 2026-05-06 15:33 | 36.93851 | -4.45616 | 13688 ft | 323 kts | 286° |
| 2026-05-06 15:33 | 36.94533 | -4.48279 | 13194 ft | 320 kts | 286° |
| 2026-05-06 15:33 | 36.95208 | -4.50919 | 12667 ft | 318 kts | 286° |
| 2026-05-06 15:33 | 36.95876 | -4.53551 | 12088 ft | 317 kts | 286° |
| 2026-05-06 15:34 | 36.96538 | -4.56165 | 11625 ft | 313 kts | 285° |
| 2026-05-06 15:34 | 36.97190 | -4.58747 | 11128 ft | 311 kts | 286° |
| 2026-05-06 15:34 | 36.97840 | -4.61324 | 10571 ft | 311 kts | 286° |
| 2026-05-06 15:34 | 36.98491 | -4.63895 | 10093 ft | 308 kts | 286° |
| 2026-05-06 15:35 | 36.99130 | -4.66420 | 9742 ft | 301 kts | 287° |
| 2026-05-06 15:35 | 37.00038 | -4.68724 | 9471 ft | 293 kts | 309° |
| 2026-05-06 15:35 | 37.01649 | -4.70217 | 9035 ft | 291 kts | 338° |
| 2026-05-06 15:35 | 37.03647 | -4.70548 | 8518 ft | 292 kts | 3° |
| 2026-05-06 15:36 | 37.05661 | -4.70264 | 8089 ft | 291 kts | 5° |
| 2026-05-06 15:36 | 37.07664 | -4.70042 | 7689 ft | 287 kts | 3° |
| 2026-05-06 15:36 | 37.09651 | -4.69920 | 7280 ft | 285 kts | 1° |
| 2026-05-06 15:36 | 37.11609 | -4.69851 | 7015 ft | 277 kts | 0° |
| 2026-05-06 15:37 | 37.13483 | -4.69813 | 6959 ft | 261 kts | 359° |
| 2026-05-06 15:37 | 37.15220 | -4.69807 | 6953 ft | 247 kts | 358° |
| 2026-05-06 15:37 | 37.16936 | -4.69816 | 6965 ft | 246 kts | 355° |
| 2026-05-06 15:37 | 37.18600 | -4.70315 | 6969 ft | 243 kts | 327° |
| 2026-05-06 15:38 | 37.19822 | -4.71721 | 6982 ft | 239 kts | 297° |
| 2026-05-06 15:38 | 37.20206 | -4.73702 | 6993 ft | 237 kts | 269° |
| 2026-05-06 15:38 | 37.20127 | -4.75762 | 7002 ft | 236 kts | 265° |
| 2026-05-06 15:38 | 37.19876 | -4.77789 | 6993 ft | 234 kts | 249° |
| 2026-05-06 15:39 | 37.19027 | -4.79498 | 6984 ft | 233 kts | 223° |
| 2026-05-06 15:39 | 37.17589 | -4.80422 | 6987 ft | 237 kts | 191° |
| 2026-05-06 15:39 | 37.15959 | -4.80487 | 6999 ft | 238 kts | 179° |
| 2026-05-06 15:39 | 37.14297 | -4.80369 | 6999 ft | 240 kts | 178° |
| 2026-05-06 15:40 | 37.12628 | -4.80279 | 6990 ft | 242 kts | 179° |
| 2026-05-06 15:40 | 37.10944 | -4.80217 | 6991 ft | 242 kts | 179° |
| 2026-05-06 15:40 | 37.09260 | -4.80172 | 6988 ft | 241 kts | 180° |
| 2026-05-06 15:40 | 37.07581 | -4.80139 | 6990 ft | 242 kts | 180° |
| 2026-05-06 15:41 | 37.05900 | -4.80111 | 6992 ft | 241 kts | 181° |
| 2026-05-06 15:41 | 37.04222 | -4.80082 | 6992 ft | 241 kts | 180° |
| 2026-05-06 15:41 | 37.02541 | -4.80051 | 6990 ft | 241 kts | 181° |
| 2026-05-06 15:41 | 37.00862 | -4.80024 | 6990 ft | 242 kts | 180° |
| 2026-05-06 15:42 | 36.99181 | -4.79999 | 6989 ft | 241 kts | 181° |
| 2026-05-06 15:42 | 36.97504 | -4.79978 | 6990 ft | 241 kts | 180° |
| 2026-05-06 15:42 | 36.95826 | -4.79958 | 6992 ft | 242 kts | 180° |
| 2026-05-06 15:42 | 36.94143 | -4.79938 | 6989 ft | 242 kts | 180° |
| 2026-05-06 15:43 | 36.92477 | -4.79654 | 6931 ft | 243 kts | 165° |
| 2026-05-06 15:43 | 36.90876 | -4.78979 | 6598 ft | 243 kts | 161° |
| 2026-05-06 15:43 | 36.89293 | -4.78265 | 6246 ft | 241 kts | 160° |
| 2026-05-06 15:43 | 36.87709 | -4.77554 | 5823 ft | 243 kts | 160° |
| 2026-05-06 15:44 | 36.86161 | -4.76707 | 5441 ft | 243 kts | 152° |
| 2026-05-06 15:44 | 36.84678 | -4.75702 | 5077 ft | 242 kts | 151° |
| 2026-05-06 15:44 | 36.83211 | -4.74699 | 4718 ft | 240 kts | 151° |
| 2026-05-06 15:44 | 36.81748 | -4.73702 | 4348 ft | 240 kts | 151° |
| 2026-05-06 15:45 | 36.80286 | -4.72711 | 4023 ft | 238 kts | 152° |
| 2026-05-06 15:45 | 36.78842 | -4.71734 | 3720 ft | 234 kts | 152° |
| 2026-05-06 15:45 | 36.77500 | -4.70618 | 3412 ft | 231 kts | 134° |
| 2026-05-06 15:45 | 36.76566 | -4.69024 | 3153 ft | 225 kts | 119° |
| 2026-05-06 15:46 | 36.75891 | -4.67306 | 2917 ft | 214 kts | 115° |
| 2026-05-06 15:46 | 36.75292 | -4.65667 | 2725 ft | 203 kts | 116° |
| 2026-05-06 15:46 | 36.74685 | -4.64110 | 2453 ft | 196 kts | 118° |
| 2026-05-06 15:46 | 36.74081 | -4.62649 | 2200 ft | 181 kts | 118° |
| 2026-05-06 15:47 | 36.73541 | -4.61356 | 1971 ft | 159 kts | 118° |
| 2026-05-06 15:47 | 36.73062 | -4.60213 | 1726 ft | 139 kts | 118° |
| 2026-05-06 15:47 | 36.72620 | -4.59160 | 1538 ft | 135 kts | 118° |
| 2026-05-06 15:47 | 36.72185 | -4.58123 | 1374 ft | 135 kts | 117° |
| 2026-05-06 15:48 | 36.71752 | -4.57092 | 1186 ft | 135 kts | 121° |
| 2026-05-06 15:48 | 36.71312 | -4.56044 | 1005 ft | 137 kts | 119° |
| 2026-05-06 15:48 | 36.70875 | -4.54994 | 840 ft | 134 kts | 120° |
| 2026-05-06 15:48 | 36.70449 | -4.53982 | 678 ft | 129 kts | 120° |
| 2026-05-06 15:49 | 36.70031 | -4.52995 | 492 ft | 129 kts | 119° |
| 2026-05-06 15:49 | 36.69613 | -4.51995 | 317 ft | 130 kts | 118° |
| 2026-05-06 15:49 | 36.69198 | -4.50999 | 132 ft | 130 kts | 118° |
| 2026-05-06 15:49 | 36.68783 | -4.50015 | 52 ft | 121 kts | 118° |
| 2026-05-06 15:50 | 36.68476 | -4.49284 | 52 ft | 67 kts | 117° |
| 2026-05-06 15:50 | 36.68331 | -4.48990 | 49 ft | 31 kts | 139° |
| 2026-05-06 15:50 | 36.68191 | -4.48865 | 43 ft | 12 kts | 149° |
| 2026-05-06 15:50 | 36.68112 | -4.48834 | 45 ft | 9 kts | 188° |
| 2026-05-06 15:51 | 36.68114 | -4.48869 | 44 ft | 8 kts | 305° |
| 2026-05-06 15:51 | 36.68146 | -4.48939 | 45 ft | 11 kts | 297° |
| 2026-05-06 15:51 | 36.68184 | -4.49029 | 45 ft | 13 kts | 297° |
| 2026-05-06 15:51 | 36.68243 | -4.49171 | 45 ft | 15 kts | 297° |
| 2026-05-06 15:52 | 36.68284 | -4.49273 | 46 ft | 13 kts | 287° |
| 2026-05-06 15:52 | 36.68261 | -4.49342 | 45 ft | 14 kts | 222° |
| 2026-05-06 15:52 | 36.68180 | -4.49429 | 47 ft | 17 kts | 222° |
| 2026-05-06 15:52 | 36.68099 | -4.49521 | 47 ft | 12 kts | 221° |
| 2026-05-06 15:53 | 36.68029 | -4.49598 | 47 ft | 14 kts | 221° |
| 2026-05-06 15:53 | 36.67949 | -4.49686 | 47 ft | 16 kts | 221° |
| 2026-05-06 15:53 | 36.67872 | -4.49771 | 47 ft | 15 kts | 222° |
| 2026-05-06 15:53 | 36.67812 | -4.49839 | 47 ft | 12 kts | 221° |
| 2026-05-06 15:54 | 36.67730 | -4.49888 | 48 ft | 14 kts | 214° |
| 2026-05-06 15:54 | 36.67648 | -4.49836 | 49 ft | 12 kts | 131° |